Time;durP1;ratioP1;P1;durP2;ratioP2;P2;SDS_P1;SDS_P2;PMS_P1;PMS_P2;Temp;Humidity;BMP_temperature;BMP_pressure;BME280_temperature;BME280_humidity;BME280_pressure;Samples;Min_cycle;Max_cycle;Signal;HPM_P1;HPM_P2
2023/11/16 00:01:25;;;;;;;;;;;;;;;25.85;43.26;94646.56;4915651;29;7361;-61
2023/11/16 00:03:55;;;;;;;;;;;;;;;25.85;43.78;94647.31;4880576;29;7243;-62
2023/11/16 00:06:30;;;;;;;;;;;;;;;25.82;43.67;94648.31;4887081;29;7241;-61
2023/11/16 00:08:56;;;;;;;;;;;;;;;25.83;43.74;94646.31;4887672;29;7010;-61
2023/11/16 00:11:22;;;;;;;;;;;;;;;25.80;43.76;94653.59;4866006;29;7232;-61
2023/11/16 00:13:50;;;;;;;;;;;;;;;25.82;43.79;94651.09;4853527;29;8797;-62
2023/11/16 00:16:21;;;;;;;;;;;;;;;25.84;43.69;94645.06;4876179;29;8862;-61
2023/11/16 00:18:51;;;;;;;;;;;;;;;25.82;43.32;94640.06;4884012;29;7212;-61
2023/11/16 00:21:17;;;;;;;;;;;;;;;25.81;43.23;94641.34;4883397;29;7006;-61
2023/11/16 00:23:48;;;;;;;;;;;;;;;25.80;43.02;94645.34;4946397;28;7226;-62
2023/11/16 00:26:33;;;;;;;;;;;;;;;25.80;44.04;94652.84;4981692;28;7062;-61
2023/11/16 00:29:13;;;;;;;;;;;;;;;25.80;43.18;94661.09;4960113;28;7769;-61
2023/11/16 00:31:39;;;;;;;;;;;;;;;25.80;43.86;94645.34;4950232;28;7387;-61
2023/11/16 00:34:09;;;;;;;;;;;;;;;25.79;44.23;94641.09;4986635;28;7310;-61
2023/11/16 00:36:45;;;;;;;;;;;;;;;25.76;43.21;94639.34;5044078;28;9398;-61
2023/11/16 00:39:12;;;;;;;;;;;;;;;25.80;43.60;94641.81;5035501;28;7410;-61
2023/11/16 00:41:38;;;;;;;;;;;;;;;25.79;42.95;94632.06;5038470;28;7202;-61
2023/11/16 00:44:05;;;;;;;;;;;;;;;25.79;43.78;94632.06;5056504;28;7239;-61
2023/11/16 00:46:51;;;;;;;;;;;;;;;25.76;43.95;94633.06;5028650;28;8471;-61
2023/11/16 00:49:30;;;;;;;;;;;;;;;25.77;43.84;94640.84;5034599;28;7218;-61
2023/11/16 00:52:24;;;;;;;;;;;;;;;25.78;43.43;94636.81;5052730;28;7071;-61
2023/11/16 00:55:11;;;;;;;;;;;;;;;25.80;43.80;94639.06;5035930;28;7306;-61
2023/11/16 00:57:55;;;;;;;;;;;;;;;25.78;43.42;94628.56;5046502;28;7369;-61
2023/11/16 01:00:31;;;;;;;;;;;;;;;25.75;43.92;94632.31;5035308;28;8351;-61
2023/11/16 01:02:59;;;;;;;;;;;;;;;25.73;43.24;94625.84;5032506;28;7053;-62
2023/11/16 01:05:37;;;;;;;;;;;;;;;25.77;43.35;94629.06;5049429;28;7080;-62
2023/11/16 01:08:09;;;;;;;;;;;;;;;25.76;43.15;94633.81;5041315;28;9034;-62
2023/11/16 01:10:37;;;;;;;;;;;;;;;25.75;43.14;94626.81;5035581;28;7890;-63
2023/11/16 01:13:28;;;;;;;;;;;;;;;25.74;43.70;94625.31;5042255;28;7236;-63
2023/11/16 01:16:04;;;;;;;;;;;;;;;25.76;43.71;94633.81;5026738;28;7228;-63
2023/11/16 01:18:46;;;;;;;;;;;;;;;25.75;43.85;94624.03;5041995;28;7225;-62
2023/11/16 01:21:40;;;;;;;;;;;;;;;25.77;43.87;94618.81;5033635;28;7269;-62
2023/11/16 01:24:11;;;;;;;;;;;;;;;25.77;43.21;94618.06;5052849;28;7076;-62
2023/11/16 01:26:41;;;;;;;;;;;;;;;25.76;43.33;94627.56;5025716;28;9150;-62
2023/11/16 01:29:47;;;;;;;;;;;;;;;25.79;43.31;94634.81;5049231;28;7220;-62
2023/11/16 01:32:39;;;;;;;;;;;;;;;25.78;43.07;94633.31;5039990;28;7246;-63
2023/11/16 01:35:22;;;;;;;;;;;;;;;25.75;42.94;94626.81;5034581;28;7074;-62
2023/11/16 01:37:57;;;;;;;;;;;;;;;25.73;44.00;94623.06;5042168;28;9089;-62
2023/11/16 01:40:51;;;;;;;;;;;;;;;25.70;43.21;94624.84;5037594;28;9089;-62
2023/11/16 01:43:18;;;;;;;;;;;;;;;25.68;43.26;94616.31;5031864;28;7343;-63
2023/11/16 01:46:17;;;;;;;;;;;;;;;25.70;42.77;94616.56;5041447;28;9063;-62
2023/11/16 01:48:52;;;;;;;;;;;;;;;25.71;42.93;94604.28;5032374;28;9054;-62
2023/11/16 01:51:37;;;;;;;;;;;;;;;25.71;43.28;94604.28;5044053;28;7264;-62
2023/11/16 01:54:17;;;;;;;;;;;;;;;25.67;43.84;94600.28;5043011;28;6988;-62
2023/11/16 01:56:47;;;;;;;;;;;;;;;25.66;43.35;94596.81;5036017;28;7259;-62
2023/11/16 01:59:14;;;;;;;;;;;;;;;25.65;43.47;94589.78;5048851;28;7001;-62
2023/11/16 02:01:44;;;;;;;;;;;;;;;25.65;42.87;94589.78;5040808;28;7259;-62
2023/11/16 02:04:10;;;;;;;;;;;;;;;25.61;43.65;94583.78;5037186;28;9450;-62
2023/11/16 02:06:51;;;;;;;;;;;;;;;25.59;43.25;94578.03;5047379;28;8558;-62
2023/11/16 02:09:27;;;;;;;;;;;;;;;25.68;43.75;94563.22;5024019;28;7226;-62
2023/11/16 02:11:55;;;;;;;;;;;;;;;25.66;43.32;94547.22;5050912;28;7296;-62
2023/11/16 02:14:27;;;;;;;;;;;;;;;25.58;43.46;94551.75;5036485;28;7041;-62
2023/11/16 02:17:03;;;;;;;;;;;;;;;25.54;43.84;94542.25;5035161;28;6996;-62
2023/11/16 02:19:31;;;;;;;;;;;;;;;25.58;43.71;94531.72;5011351;28;9459;-62
2023/11/16 02:22:18;;;;;;;;;;;;;;;25.54;43.38;94522.97;5031917;28;7189;-62
2023/11/16 02:25:20;;;;;;;;;;;;;;;25.48;43.38;94509.22;5033804;28;9206;-62
2023/11/16 02:27:50;;;;;;;;;;;;;;;25.52;43.68;94503.44;5043460;28;8339;-62
2023/11/16 02:30:45;;;;;;;;;;;;;;;25.51;43.24;94501.97;5027388;28;9490;-62
2023/11/16 02:33:24;;;;;;;;;;;;;;;25.55;43.20;94502.44;5035699;28;7333;-62
2023/11/16 02:35:52;;;;;;;;;;;;;;;25.54;43.14;94498.16;5027935;28;9100;-62
2023/11/16 02:38:34;;;;;;;;;;;;;;;25.49;43.90;94494.19;5035611;28;7238;-62
2023/11/16 02:41:14;;;;;;;;;;;;;;;25.49;43.74;94487.94;5050492;28;6985;-62
2023/11/16 02:43:44;;;;;;;;;;;;;;;25.53;43.76;94486.44;5025980;28;7131;-62
2023/11/16 02:46:27;;;;;;;;;;;;;;;25.49;43.36;94477.66;5040937;28;9212;-62
2023/11/16 02:48:53;;;;;;;;;;;;;;;25.47;44.09;94474.66;5035283;28;7264;-62
2023/11/16 02:51:25;;;;;;;;;;;;;;;25.51;43.34;94479.94;5030643;28;7241;-62
2023/11/16 02:53:53;;;;;;;;;;;;;;;25.45;43.78;94477.19;5029981;28;7008;-62
2023/11/16 02:56:21;;;;;;;;;;;;;;;25.45;43.53;94476.47;5055254;28;7279;-62
2023/11/16 02:59:20;;;;;;;;;;;;;;;25.43;43.37;94472.19;5040496;28;9211;-63
2023/11/16 03:02:07;;;;;;;;;;;;;;;25.42;43.24;94464.44;4980724;28;7620;-62
2023/11/16 03:04:45;;;;;;;;;;;;;;;25.41;43.74;94460.16;4985996;28;7262;-63
2023/11/16 03:07:13;;;;;;;;;;;;;;;25.40;43.32;94455.91;4991554;28;9178;-62
2023/11/16 03:09:39;;;;;;;;;;;;;;;25.40;43.10;94459.41;4974025;28;6992;-62
2023/11/16 03:12:06;;;;;;;;;;;;;;;25.37;43.71;94462.44;4971860;28;7282;-62
2023/11/16 03:14:32;;;;;;;;;;;;;;;25.37;43.62;94459.69;4966535;28;9069;-62
2023/11/16 03:16:58;;;;;;;;;;;;;;;25.34;43.69;94444.16;4977663;28;7277;-62
2023/11/16 03:20:10;;;;;;;;;;;;;;;25.38;43.41;94447.41;4988602;28;7037;-62
2023/11/16 03:22:49;;;;;;;;;;;;;;;25.37;43.92;94440.41;4935916;29;9468;-57
2023/11/16 03:25:47;;;;;;;;;;;;;;;25.37;43.88;94434.91;4929114;28;7236;-57
2023/11/16 03:28:21;;;;;;;;;;;;;;;25.37;43.73;94430.16;4938357;28;7012;-58
2023/11/16 03:30:49;;;;;;;;;;;;;;;25.34;43.89;94422.13;4936308;29;9069;-57
2023/11/16 03:33:39;;;;;;;;;;;;;;;25.35;43.79;94424.41;4920281;29;8790;-57
2023/11/16 03:36:16;;;;;;;;;;;;;;;25.35;43.97;94421.66;4935649;28;9878;-57
2023/11/16 03:38:57;;;;;;;;;;;;;;;25.35;43.48;94418.13;4962824;28;7248;-57
2023/11/16 03:41:32;;;;;;;;;;;;;;;25.34;43.42;94416.63;4953199;28;7537;-57
2023/11/16 03:43:58;;;;;;;;;;;;;;;25.33;43.49;94420.66;4967491;28;7541;-57
2023/11/16 03:46:24;;;;;;;;;;;;;;;25.34;43.17;94417.38;4951386;28;7329;-57
2023/11/16 03:48:49;;;;;;;;;;;;;;;25.33;43.38;94420.66;4957973;28;7880;-57
2023/11/16 03:51:29;;;;;;;;;;;;;;;25.34;43.50;94422.13;4953997;28;7273;-57
2023/11/16 03:53:58;;;;;;;;;;;;;;;25.32;43.29;94419.91;4963395;28;7429;-57
2023/11/16 03:56:37;;;;;;;;;;;;;;;25.34;43.98;94419.38;4957406;28;7072;-57
2023/11/16 03:59:23;;;;;;;;;;;;;;;25.35;43.21;94418.13;4966426;28;9255;-57
2023/11/16 04:02:35;;;;;;;;;;;;;;;25.34;43.52;94414.63;5032153;28;9123;-57
2023/11/16 04:05:22;;;;;;;;;;;;;;;25.31;43.31;94410.16;4965823;28;7332;-57
2023/11/16 04:08:32;;;;;;;;;;;;;;;25.33;43.85;94412.41;4962989;28;7322;-57
2023/11/16 04:11:24;;;;;;;;;;;;;;;25.34;42.97;94405.63;4970950;28;7208;-57
2023/11/16 04:14:36;;;;;;;;;;;;;;;25.33;43.66;94407.66;4968292;28;7189;-57
2023/11/16 04:17:03;;;;;;;;;;;;;;;25.33;44.00;94404.88;4898192;29;7307;-57
2023/11/16 04:20:04;;;;;;;;;;;;;;;25.32;44.13;94391.63;4903722;29;7185;-57
2023/11/16 04:22:55;;;;;;;;;;;;;;;25.33;43.18;94384.88;4896696;29;7178;-57
2023/11/16 04:25:45;;;;;;;;;;;;;;;25.32;44.05;94383.34;4896477;29;7280;-57
2023/11/16 04:28:13;;;;;;;;;;;;;;;25.31;43.71;94388.13;4888699;29;7011;-57
2023/11/16 04:30:51;;;;;;;;;;;;;;;25.28;43.53;94380.88;4879381;29;7333;-57
2023/11/16 04:33:51;;;;;;;;;;;;;;;25.29;43.04;94374.09;4880620;29;6868;-57
2023/11/16 04:36:32;;;;;;;;;;;;;;;25.29;43.08;94371.34;4871125;29;7004;-57
2023/11/16 04:39:11;;;;;;;;;;;;;;;25.27;43.31;94360.09;4872251;29;8911;-57
2023/11/16 04:41:50;;;;;;;;;;;;;;;25.31;43.97;94357.09;4885061;29;7237;-57
2023/11/16 04:44:26;;;;;;;;;;;;;;;25.32;43.42;94364.09;4895879;29;7008;-57
2023/11/16 04:47:09;;;;;;;;;;;;;;;25.30;43.69;94355.59;4874929;29;7218;-57
2023/11/16 04:49:49;;;;;;;;;;;;;;;25.30;43.75;94358.34;4876162;29;8754;-57
2023/11/16 04:52:17;;;;;;;;;;;;;;;25.30;44.18;94359.09;4876057;29;7908;-57
2023/11/16 04:54:53;;;;;;;;;;;;;;;25.29;43.71;94363.09;4907157;29;7516;-57
2023/11/16 04:57:19;;;;;;;;;;;;;;;25.31;43.13;94357.09;4918307;28;7603;-57
2023/11/16 05:00:33;;;;;;;;;;;;;;;25.30;43.04;94361.09;4963986;28;9025;-57
2023/11/16 05:03:27;;;;;;;;;;;;;;;25.29;42.85;94360.34;4943880;28;7212;-57
2023/11/16 05:06:17;;;;;;;;;;;;;;;25.30;43.83;94352.84;4945302;28;7499;-57
2023/11/16 05:08:54;;;;;;;;;;;;;;;25.27;43.33;94345.63;4964951;28;8758;-57
2023/11/16 05:11:29;;;;;;;;;;;;;;;25.29;43.53;94348.59;4965780;28;9434;-57
2023/11/16 05:14:01;;;;;;;;;;;;;;;25.27;43.15;94334.59;5039913;28;8400;-57
2023/11/16 05:16:29;;;;;;;;;;;;;;;25.27;43.37;94335.31;5048650;28;7268;-57
2023/11/16 05:19:03;;;;;;;;;;;;;;;25.28;42.97;94336.09;5042304;28;8827;-57
2023/11/16 05:21:36;;;;;;;;;;;;;;;25.25;42.83;94343.34;5028311;28;9144;-57
2023/11/16 05:24:07;;;;;;;;;;;;;;;25.30;43.60;94339.06;5033905;28;7018;-57
2023/11/16 05:26:51;;;;;;;;;;;;;;;25.27;43.36;94340.84;5050224;28;9129;-57
2023/11/16 05:29:23;;;;;;;;;;;;;;;25.27;43.34;94337.34;5031392;28;9066;-57
2023/11/16 05:32:02;;;;;;;;;;;;;;;25.32;42.91;94336.56;5033685;28;7026;-57
2023/11/16 05:35:00;;;;;;;;;;;;;;;25.31;43.79;94327.56;5034834;28;8743;-57
2023/11/16 05:37:29;;;;;;;;;;;;;;;25.30;43.03;94331.56;5021682;28;7340;-57
2023/11/16 05:40:03;;;;;;;;;;;;;;;25.29;43.04;94332.09;5051866;28;7063;-57
2023/11/16 05:42:34;;;;;;;;;;;;;;;25.27;43.73;94329.81;5046889;28;7253;-63
2023/11/16 05:45:02;;;;;;;;;;;;;;;25.27;43.64;94318.09;5031278;28;7240;-62
2023/11/16 05:48:09;;;;;;;;;;;;;;;25.28;43.00;94325.81;5029191;28;7322;-62
2023/11/16 05:50:51;;;;;;;;;;;;;;;25.27;43.01;94318.09;4974006;28;9105;-63
2023/11/16 05:53:26;;;;;;;;;;;;;;;25.28;43.38;94311.31;4974650;28;9961;-62
2023/11/16 05:56:01;;;;;;;;;;;;;;;25.28;42.89;94311.31;4966897;28;7252;-62
2023/11/16 05:58:38;;;;;;;;;;;;;;;25.29;43.64;94299.78;4974837;28;7880;-63
2023/11/16 06:01:13;;;;;;;;;;;;;;;25.32;43.14;94298.00;4974748;28;6999;-62
2023/11/16 06:03:39;;;;;;;;;;;;;;;25.39;42.77;94297.47;4986242;28;7341;-62
2023/11/16 06:06:05;;;;;;;;;;;;;;;25.45;42.70;94300.94;4967524;28;7258;-62
2023/11/16 06:08:33;;;;;;;;;;;;;;;25.47;43.08;94303.94;4986992;28;7314;-62
2023/11/16 06:10:59;;;;;;;;;;;;;;;25.47;43.41;94295.69;4971157;28;7156;-63
2023/11/16 06:13:26;;;;;;;;;;;;;;;25.50;43.29;94286.41;4984225;28;7159;-62
2023/11/16 06:15:52;;;;;;;;;;;;;;;25.52;43.60;94294.91;4988060;28;7914;-62
2023/11/16 06:18:20;;;;;;;;;;;;;;;25.54;43.32;94289.63;4989405;28;7302;-62
2023/11/16 06:20:46;;;;;;;;;;;;;;;25.54;42.47;94294.38;4970302;28;7050;-63
2023/11/16 06:23:12;;;;;;;;;;;;;;;25.56;42.99;94289.84;4970577;28;7234;-62
2023/11/16 06:25:39;;;;;;;;;;;;;;;25.57;42.75;94280.34;5023802;28;9231;-62
2023/11/16 06:28:04;;;;;;;;;;;;;;;25.56;42.55;94284.34;5034101;28;7236;-62
2023/11/16 06:30:31;;;;;;;;;;;;;;;25.57;43.34;94285.09;5049815;28;7020;-62
2023/11/16 06:33:32;;;;;;;;;;;;;;;25.59;43.11;94283.31;5050606;28;7241;-62
2023/11/16 06:36:06;;;;;;;;;;;;;;;25.59;42.45;94266.06;5050529;28;7267;-62
2023/11/16 06:39:07;;;;;;;;;;;;;;;25.65;42.67;94277.75;5054325;28;7565;-62
2023/11/16 06:41:34;;;;;;;;;;;;;;;25.61;42.70;94275.28;4988635;28;6994;-62
2023/11/16 06:44:21;;;;;;;;;;;;;;;25.62;42.44;94274.03;4991274;28;8802;-62
2023/11/16 06:46:49;;;;;;;;;;;;;;;25.62;41.77;94271.28;4973876;28;7667;-61
2023/11/16 06:49:34;;;;;;;;;;;;;;;25.63;41.82;94261.75;4983774;28;7251;-62
2023/11/16 06:52:16;;;;;;;;;;;;;;;25.59;42.38;94261.28;4990699;28;7199;-61
2023/11/16 06:55:32;;;;;;;;;;;;;;;25.63;42.53;94261.00;4992606;28;7708;-61
2023/11/16 06:58:13;;;;;;;;;;;;;;;25.64;42.46;94257.00;4945696;28;7347;-61
2023/11/16 07:00:39;;;;;;;;;;;;;;;25.64;42.04;94254.25;4946362;28;8767;-61
2023/11/16 07:03:07;;;;;;;;;;;;;;;25.60;42.45;94251.03;4948380;28;9507;-61
2023/11/16 07:05:42;;;;;;;;;;;;;;;25.59;42.75;94238.50;4950376;28;7205;-60
2023/11/16 07:08:12;;;;;;;;;;;;;;;25.60;43.00;94226.97;4954481;28;6975;-61
2023/11/16 07:10:53;;;;;;;;;;;;;;;25.60;43.07;94224.22;4940143;28;8859;-61
2023/11/16 07:13:22;;;;;;;;;;;;;;;25.55;43.05;94216.78;4928830;28;7209;-61
2023/11/16 07:15:49;;;;;;;;;;;;;;;25.53;42.25;94224.81;4941576;28;7034;-61
2023/11/16 07:18:19;;;;;;;;;;;;;;;25.59;42.99;94224.75;4998754;28;7245;-61
2023/11/16 07:20:47;;;;;;;;;;;;;;;25.60;42.16;94221.47;5005662;28;7223;-61
2023/11/16 07:23:15;;;;;;;;;;;;;;;25.60;43.15;94229.72;5007184;28;7096;-61
2023/11/16 07:25:45;;;;;;;;;;;;;;;25.59;42.30;94225.50;4995112;28;7268;-61
2023/11/16 07:28:47;;;;;;;;;;;;;;;25.63;42.02;94233.47;4988076;28;6981;-60
2023/11/16 07:31:24;;;;;;;;;;;;;;;25.61;41.74;94231.22;4956589;28;7258;-61
2023/11/16 07:33:54;;;;;;;;;;;;;;;25.61;41.99;94222.97;4950592;28;6932;-61
2023/11/16 07:36:27;;;;;;;;;;;;;;;25.57;42.06;94227.25;4987006;28;9067;-61
2023/11/16 07:38:57;;;;;;;;;;;;;;;25.60;42.01;94215.22;4962457;28;6985;-61
2023/11/16 07:41:24;;;;;;;;;;;;;;;25.59;42.19;94208.22;4959528;28;6998;-61
2023/11/16 07:43:53;;;;;;;;;;;;;;;25.60;42.53;94209.72;4961795;28;7247;-61
2023/11/16 07:46:21;;;;;;;;;;;;;;;25.57;42.63;94210.75;4982582;28;8580;-61
2023/11/16 07:49:12;;;;;;;;;;;;;;;25.57;42.46;94197.72;4975701;28;9128;-61
2023/11/16 07:52:05;;;;;;;;;;;;;;;25.59;42.67;94200.72;4977590;28;7359;-61
2023/11/16 07:54:33;;;;;;;;;;;;;;;25.61;42.20;94197.44;4969376;28;7604;-61
2023/11/16 07:57:13;;;;;;;;;;;;;;;25.60;42.90;94196.69;4981803;28;7785;-61
2023/11/16 07:59:42;;;;;;;;;;;;;;;25.63;42.52;94195.66;4984224;28;7079;-61
2023/11/16 08:02:25;;;;;;;;;;;;;;;25.60;42.95;94193.19;4982553;28;7345;-61
2023/11/16 08:05:11;;;;;;;;;;;;;;;25.62;42.15;94201.69;4976130;28;7255;-61
2023/11/16 08:07:40;;;;;;;;;;;;;;;25.58;42.68;94203.97;5018090;28;6871;-61
2023/11/16 08:10:43;;;;;;;;;;;;;;;25.55;42.66;94193.97;5039790;28;8753;-61
2023/11/16 08:13:18;;;;;;;;;;;;;;;25.61;42.12;94197.44;4938116;28;7169;-61
2023/11/16 08:15:52;;;;;;;;;;;;;;;25.59;42.75;94194.44;4959229;28;9291;-60
2023/11/16 08:18:33;;;;;;;;;;;;;;;25.62;41.73;94191.41;4956826;28;7230;-60
2023/11/16 08:21:14;;;;;;;;;;;;;;;25.59;41.47;94178.66;4960434;28;7184;-61
2023/11/16 08:23:56;;;;;;;;;;;;;;;25.60;41.36;94182.91;4947390;28;7088;-61
2023/11/16 08:26:32;;;;;;;;;;;;;;;25.61;41.63;94181.66;4955839;28;6990;-61
2023/11/16 08:29:08;;;;;;;;;;;;;;;25.58;41.29;94176.44;4947957;28;9385;-61
2023/11/16 08:32:24;;;;;;;;;;;;;;;25.54;42.06;94184.97;4963155;28;7242;-61
2023/11/16 08:35:23;;;;;;;;;;;;;;;25.55;41.47;94175.47;4901973;29;8859;-61
2023/11/16 08:38:42;;;;;;;;;;;;;;;25.52;41.87;94182.00;4909479;29;7240;-61
2023/11/16 08:41:15;;;;;;;;;;;;;;;25.49;41.68;94176.78;4878498;29;7372;-62
2023/11/16 08:43:45;;;;;;;;;;;;;;;25.47;42.54;94182.06;4878148;29;7362;-61
2023/11/16 08:46:24;;;;;;;;;;;;;;;25.45;42.12;94177.03;4866439;29;7479;-61
2023/11/16 08:49:21;;;;;;;;;;;;;;;25.45;42.74;94174.28;4913820;28;7348;-61
2023/11/16 08:52:07;;;;;;;;;;;;;;;25.46;41.99;94184.06;4963694;28;8140;-62
2023/11/16 08:55:12;;;;;;;;;;;;;;;25.46;41.97;94175.78;4956540;28;7384;-61
2023/11/16 08:57:46;;;;;;;;;;;;;;;25.45;42.00;94179.06;4959510;28;6992;-61
2023/11/16 09:00:27;;;;;;;;;;;;;;;25.47;42.55;94187.56;4960905;28;7285;-61
2023/11/16 09:03:00;;;;;;;;;;;;;;;25.48;42.06;94178.03;4942240;28;9252;-61
2023/11/16 09:05:32;;;;;;;;;;;;;;;25.54;42.23;94184.22;4960270;28;7276;-61
2023/11/16 09:08:11;;;;;;;;;;;;;;;25.47;42.30;94182.78;4956304;28;6997;-62
2023/11/16 09:10:55;;;;;;;;;;;;;;;25.46;41.92;94192.31;4953884;28;7114;-61
2023/11/16 09:13:34;;;;;;;;;;;;;;;25.45;42.37;94203.84;4966539;28;7492;-57
2023/11/16 09:16:16;;;;;;;;;;;;;;;25.42;42.51;94197.34;4945444;28;7331;-58
2023/11/16 09:19:17;;;;;;;;;;;;;;;25.43;42.75;94198.84;4996392;28;7257;-57
2023/11/16 09:22:11;;;;;;;;;;;;;;;25.41;43.17;94190.31;4957561;28;8629;-57
2023/11/16 09:24:57;;;;;;;;;;;;;;;25.44;42.94;94186.56;4959732;28;9021;-57
2023/11/16 09:27:56;;;;;;;;;;;;;;;25.45;42.53;94179.78;4935390;28;8711;-57
2023/11/16 09:30:27;;;;;;;;;;;;;;;25.45;42.34;94174.28;4944902;28;9112;-57
2023/11/16 09:33:10;;;;;;;;;;;;;;;25.49;42.07;94183.00;4935977;28;8740;-57
2023/11/16 09:35:46;;;;;;;;;;;;;;;25.53;42.05;94186.25;4948891;28;8733;-57
2023/11/16 09:38:50;;;;;;;;;;;;;;;25.55;41.87;94177.47;4938511;28;7176;-57
2023/11/16 09:41:30;;;;;;;;;;;;;;;25.54;41.75;94176.72;4947829;28;7197;-57
2023/11/16 09:44:14;;;;;;;;;;;;;;;25.54;41.77;94170.44;4929693;28;7192;-58
2023/11/16 09:46:52;;;;;;;;;;;;;;;25.58;42.06;94159.91;4931534;28;7255;-58
2023/11/16 09:49:24;;;;;;;;;;;;;;;25.57;41.68;94155.66;4941493;28;7105;-58
2023/11/16 09:51:52;;;;;;;;;;;;;;;25.55;41.93;94133.41;4935848;28;7014;-57
2023/11/16 09:54:22;;;;;;;;;;;;;;;25.55;41.19;94134.16;4938359;28;7349;-58
2023/11/16 09:56:54;;;;;;;;;;;;;;;25.53;41.19;94125.66;4959555;28;7296;-58
2023/11/16 09:59:34;;;;;;;;;;;;;;;25.49;40.93;94108.66;5000178;28;7242;-58
2023/11/16 10:02:09;;;;;;;;;;;;;;;25.49;40.33;94100.41;5011253;28;7316;-58
2023/11/16 10:04:54;;;;;;;;;;;;;;;25.47;39.96;94080.91;5023159;28;9383;-58
2023/11/16 10:07:42;;;;;;;;;;;;;;;25.43;39.52;94066.69;5043119;28;7336;-58
2023/11/16 10:10:14;;;;;;;;;;;;;;;25.40;39.23;94056.69;5049855;28;7458;-58
2023/11/16 10:12:56;;;;;;;;;;;;;;;25.40;39.22;94056.69;5051565;28;7209;-58
2023/11/16 10:15:35;;;;;;;;;;;;;;;25.41;39.38;94053.41;5023081;28;7256;-58
2023/11/16 10:18:11;;;;;;;;;;;;;;;25.46;40.56;94029.84;5030928;28;7658;-58
2023/11/16 10:20:51;;;;;;;;;;;;;;;25.47;39.26;94008.59;5055377;28;9464;-58
2023/11/16 10:23:19;;;;;;;;;;;;;;;25.48;40.06;94001.78;5043520;28;7216;-64
2023/11/16 10:25:49;;;;;;;;;;;;;;;25.51;39.66;93978.75;5057227;28;9765;-64
2023/11/16 10:28:34;;;;;;;;;;;;;;;25.51;38.98;93943.69;5058064;28;9070;-64
2023/11/16 10:31:22;;;;;;;;;;;;;;;25.50;40.09;93938.69;5052657;28;8878;-63
2023/11/16 10:34:32;;;;;;;;;;;;;;;25.52;39.12;93908.63;5027679;28;9124;-64
2023/11/16 10:37:13;;;;;;;;;;;;;;;25.55;38.91;93871.78;4971383;28;7903;-63
2023/11/16 10:39:43;;;;;;;;;;;;;;;25.54;38.51;93845.50;4971516;28;7052;-63
2023/11/16 10:42:41;;;;;;;;;;;;;;;25.53;37.64;93803.47;4957914;28;6856;-64
2023/11/16 10:45:22;;;;;;;;;;;;;;;25.54;37.77;93785.69;4864907;29;7229;-64
2023/11/16 10:47:50;;;;;;;;;;;;;;;25.49;37.31;93756.22;4876003;29;7279;-64
2023/11/16 10:50:18;;;;;;;;;;;;;;;25.54;38.38;93769.16;4859702;29;7012;-64
2023/11/16 10:52:51;;;;;;;;;;;;;;;25.53;37.73;93751.16;4877371;29;8843;-63
2023/11/16 10:55:21;;;;;;;;;;;;;;;25.50;37.42;93735.69;4877479;29;7947;-63
2023/11/16 10:58:13;;;;;;;;;;;;;;;25.53;38.15;93718.13;4870838;29;7041;-63
2023/11/16 11:01:18;;;;;;;;;;;;;;;25.54;37.27;93694.81;4880114;29;8708;-63
2023/11/16 11:03:49;;;;;;;;;;;;;;;25.53;37.61;93685.06;4879873;29;7177;-63
2023/11/16 11:06:42;;;;;;;;;;;;;;;25.56;38.63;93672.25;4862591;29;8842;-64
2023/11/16 11:09:15;;;;;;;;;;;;;;;25.55;38.26;93649.50;4862130;29;7029;-63
2023/11/16 11:12:37;;;;;;;;;;;;;;;25.55;38.35;93654.25;4861196;29;7181;-63
2023/11/16 11:15:23;;;;;;;;;;;;;;;25.54;37.72;93650.00;4910751;29;8530;-63
2023/11/16 11:18:27;;;;;;;;;;;;;;;25.57;38.41;93640.69;4915832;29;7019;-63
2023/11/16 11:21:37;;;;;;;;;;;;;;;25.57;37.85;93619.41;4881647;29;7286;-63
2023/11/16 11:28:16;;;;;;;;;;;;;;;25.53;37.54;93566.69;4892350;29;7484;-64
2023/11/16 11:31:10;;;;;;;;;;;;;;;25.56;37.87;93557.34;4819221;29;9084;-64
2023/11/16 11:33:46;;;;;;;;;;;;;;;25.53;38.09;93536.38;4789298;29;7518;-68
2023/11/16 11:36:26;;;;;;;;;;;;;;;25.48;38.60;93517.97;4773046;29;8576;-68
2023/11/16 11:39:26;;;;;;;;;;;;;;;25.44;39.45;93498.28;4790595;29;8672;-69
2023/11/16 11:41:59;;;;;;;;;;;;;;;25.43;39.17;93486.50;4689324;30;7445;-68
2023/11/16 11:44:36;;;;;;;;;;;;;;;25.43;39.41;93483.00;4713161;30;8216;-68
2023/11/16 11:47:42;;;;;;;;;;;;;;;25.47;39.82;93471.69;4700126;30;8266;-68
2023/11/16 11:50:12;;;;;;;;;;;;;;;25.50;39.70;93471.38;4677508;30;7836;-69
2023/11/16 11:52:40;;;;;;;;;;;;;;;25.49;39.40;93452.63;4708434;30;8648;-67
2023/11/16 11:55:08;;;;;;;;;;;;;;;25.47;39.12;93433.88;4694507;30;8503;-67
2023/11/16 11:57:34;;;;;;;;;;;;;;;25.50;39.87;93430.06;4680580;30;7356;-67
2023/11/16 12:00:00;;;;;;;;;;;;;;;25.52;39.21;93422.00;4695715;30;8363;-67
2023/11/16 12:02:28;;;;;;;;;;;;;;;25.53;38.65;93404.22;4706689;30;7435;-68
2023/11/16 12:05:18;;;;;;;;;;;;;;;25.52;38.60;93418.50;4729667;30;7590;-67
2023/11/16 12:08:00;;;;;;;;;;;;;;;25.49;37.89;93414.81;4799107;29;7393;-68
2023/11/16 12:10:26;;;;;;;;;;;;;;;25.50;38.31;93416.28;4828719;29;9412;-68
2023/11/16 12:12:57;;;;;;;;;;;;;;;25.48;37.92;93429.84;4838256;29;7360;-67
2023/11/16 12:15:23;;;;;;;;;;;;;;;25.49;37.95;93438.88;4841201;29;9399;-68
2023/11/16 12:17:50;;;;;;;;;;;;;;;25.50;37.88;93443.84;4875628;28;8835;-68
2023/11/16 12:20:27;;;;;;;;;;;;;;;25.47;37.63;93444.88;4965792;28;8129;-69
2023/11/16 12:23:06;;;;;;;;;;;;;;;25.47;37.90;93458.66;5034880;28;7211;-67
2023/11/16 12:25:43;;;;;;;;;;;;;;;25.52;37.74;93462.56;5053033;28;7199;-67
2023/11/16 12:28:11;;;;;;;;;;;;;;;25.51;38.40;93486.63;5034855;28;9372;-67
2023/11/16 12:30:47;;;;;;;;;;;;;;;25.50;37.95;93509.16;5050561;28;7348;-67
2023/11/16 12:33:18;;;;;;;;;;;;;;;25.47;38.28;93505.44;5047649;28;9005;-67
2023/11/16 12:35:55;;;;;;;;;;;;;;;25.48;38.34;93490.44;5055952;28;8874;-66
2023/11/16 12:38:26;;;;;;;;;;;;;;;25.46;37.53;93503.25;5026626;28;8781;-67
2023/11/16 12:41:07;;;;;;;;;;;;;;;25.47;38.12;93508.22;5065667;28;9177;-67
2023/11/16 12:44:03;;;;;;;;;;;;;;;25.49;38.67;93507.69;5052966;28;7293;-60
2023/11/16 12:46:29;;;;;;;;;;;;;;;25.44;38.14;93517.53;5039069;28;8755;-60
2023/11/16 12:48:56;;;;;;;;;;;;;;;25.49;38.75;93538.69;5025285;28;6989;-60
2023/11/16 12:51:34;;;;;;;;;;;;;;;25.53;38.08;93552.91;5034007;28;7874;-59
2023/11/16 12:54:03;;;;;;;;;;;;;;;25.51;38.80;93560.97;5051683;28;8784;-60
2023/11/16 12:56:37;;;;;;;;;;;;;;;25.54;37.94;93570.16;5030936;28;6994;-59
2023/11/16 12:59:24;;;;;;;;;;;;;;;25.52;38.41;93589.97;5032578;28;7195;-59
2023/11/16 13:02:05;;;;;;;;;;;;;;;25.52;38.34;93620.25;5043469;28;6988;-59
2023/11/16 13:04:58;;;;;;;;;;;;;;;25.52;37.86;93625.00;5035299;28;8761;-60
2023/11/16 13:07:36;;;;;;;;;;;;;;;25.52;38.17;93619.50;5052704;28;8427;-59
2023/11/16 13:10:03;;;;;;;;;;;;;;;25.50;38.54;93652.34;5038011;28;7347;-59
2023/11/16 13:12:45;;;;;;;;;;;;;;;25.48;38.24;93652.13;5044398;28;7330;-59
2023/11/16 13:15:19;;;;;;;;;;;;;;;25.49;38.61;93643.31;5028962;28;7507;-59
2023/11/16 13:17:46;;;;;;;;;;;;;;;25.45;38.44;93667.69;5055149;28;6949;-60
2023/11/16 13:20:27;;;;;;;;;;;;;;;25.48;38.46;93674.91;5042469;28;8808;-59
2023/11/16 13:23:53;;;;;;;;;;;;;;;25.51;38.91;93660.09;5058684;28;8773;-59
2023/11/16 13:26:25;;;;;;;;;;;;;;;25.51;38.43;93621.53;5020148;28;7292;-59
2023/11/16 13:28:53;;;;;;;;;;;;;;;25.50;38.42;93620.03;5049538;28;7327;-60
2023/11/16 13:31:22;;;;;;;;;;;;;;;25.47;38.76;93606.59;5045003;28;7094;-60
2023/11/16 13:33:53;;;;;;;;;;;;;;;25.51;38.67;93604.25;5048999;28;9361;-60
2023/11/16 13:36:19;;;;;;;;;;;;;;;25.54;38.20;93603.19;5043103;28;7187;-60
2023/11/16 13:38:46;;;;;;;;;;;;;;;25.51;39.14;93583.00;5050550;28;7038;-60
2023/11/16 13:41:13;;;;;;;;;;;;;;;25.52;38.92;93584.44;5038642;28;6965;-61
2023/11/16 13:43:39;;;;;;;;;;;;;;;25.55;38.42;93588.91;5034013;28;7016;-60
2023/11/16 13:46:20;;;;;;;;;;;;;;;25.54;38.59;93589.44;5034687;28;9094;-60
2023/11/16 13:48:46;;;;;;;;;;;;;;;25.53;39.16;93591.47;5031819;28;7212;-60
2023/11/16 13:51:17;;;;;;;;;;;;;;;25.55;39.12;93575.16;5051062;28;6999;-60
2023/11/16 13:53:54;;;;;;;;;;;;;;;25.58;38.97;93574.06;5052859;28;6975;-67
2023/11/16 13:56:36;;;;;;;;;;;;;;;25.57;39.16;93591.88;5054852;28;7023;-70
2023/11/16 13:59:05;;;;;;;;;;;;;;;25.58;38.79;93598.84;5028041;28;9147;-67
2023/11/16 14:01:31;;;;;;;;;;;;;;;25.66;38.52;93607.22;5054764;28;9061;-67